Time,TemperatureF,DewpointF,PressureIn,WindDirection,WindDirectionDegrees,WindSpeedMPH,WindSpeedGustMPH,Humidity,HourlyPrecipIn,Conditions,Clouds,dailyrainin,SoftwareType,DateUTC
2013-08-27 00:04:00,62.4,41.4,29.81,ESE,103,2.7,3.6,46,0.00,,CLR,0.00,VWS V14.01,2013-08-27 07:04:00,
2013-08-27 00:09:00,62.2,41.2,29.81,ESE,103,4.0,4.0,46,0.00,,CLR,0.00,VWS V14.01,2013-08-27 07:09:00,
2013-08-27 00:14:00,61.7,41.3,29.81,SE,124,4.0,6.9,47,0.00,,CLR,0.00,VWS V14.01,2013-08-27 07:14:00,
2013-08-27 00:19:00,61.7,41.3,29.81,ESE,123,4.9,5.4,47,0.00,,CLR,0.00,VWS V14.01,2013-08-27 07:19:00,
2013-08-27 00:24:00,61.3,41.0,29.81,ESE,123,4.5,4.9,47,0.00,,CLR,0.00,VWS V14.01,2013-08-27 07:24:00,
2013-08-27 00:29:00,61.0,41.2,29.81,ESE,105,3.1,4.5,48,0.00,,CLR,0.00,VWS V14.01,2013-08-27 07:29:00,
2013-08-27 00:34:00,60.6,40.8,29.81,ESE,105,4.0,4.9,48,0.00,,CLR,0.00,VWS V14.01,2013-08-27 07:34:00,
2013-08-27 00:39:00,60.8,41.5,29.81,ESE,106,4.0,4.5,49,0.00,,CLR,0.00,VWS V14.01,2013-08-27 07:39:00,
2013-08-27 00:44:00,60.4,41.7,29.81,ESE,105,4.5,4.5,50,0.00,,CLR,0.00,VWS V14.01,2013-08-27 07:44:00,
2013-08-27 00:49:00,60.6,41.9,29.81,ESE,105,3.1,4.5,50,0.00,,CLR,0.00,VWS V14.01,2013-08-27 07:49:00,
2013-08-27 00:54:00,60.4,41.2,29.81,ESE,105,5.4,5.4,49,0.00,,CLR,0.00,VWS V14.01,2013-08-27 07:54:00,
2013-08-27 00:59:00,60.4,41.7,29.81,ESE,105,3.6,4.0,50,0.00,,CLR,0.00,VWS V14.01,2013-08-27 07:59:00,
2013-08-27 01:04:00,60.3,41.6,29.81,ESE,105,0.0,3.6,50,0.00,,CLR,0.00,VWS V14.01,2013-08-27 08:04:00,
2013-08-27 01:09:00,59.9,42.2,29.81,ESE,105,0.0,0.0,52,0.00,,CLR,0.00,VWS V14.01,2013-08-27 08:09:00,
2013-08-27 01:14:00,60.1,42.4,29.81,ESE,105,3.1,4.0,52,0.00,,CLR,0.00,VWS V14.01,2013-08-27 08:14:00,
2013-08-27 01:19:00,59.7,41.6,29.81,ESE,105,4.0,4.5,51,0.00,,CLR,0.00,VWS V14.01,2013-08-27 08:19:00,
2013-08-27 01:24:00,59.7,42.1,29.81,ESE,105,4.0,4.0,52,0.00,,CLR,0.00,VWS V14.01,2013-08-27 08:24:00,
2013-08-27 01:29:00,59.7,41.6,29.81,ESE,105,4.5,4.9,51,0.00,,CLR,0.00,VWS V14.01,2013-08-27 08:29:00,
2013-08-27 01:34:00,59.5,41.9,29.81,ESE,105,0.0,0.0,52,0.00,,CLR,0.00,VWS V14.01,2013-08-27 08:34:00,
2013-08-27 01:39:00,59.4,42.2,29.81,ESE,105,3.6,3.6,53,0.00,,CLR,0.00,VWS V14.01,2013-08-27 08:39:00,
2013-08-27 01:44:00,59.2,42.1,29.81,ESE,105,0.0,0.0,53,0.00,,CLR,0.00,VWS V14.01,2013-08-27 08:44:00,
2013-08-27 01:49:00,59.0,42.4,29.81,ESE,105,3.1,3.6,54,0.00,,CLR,0.00,VWS V14.01,2013-08-27 08:49:00,
2013-08-27 01:54:00,58.8,42.2,29.81,ESE,104,3.6,4.0,54,0.00,,CLR,0.00,VWS V14.01,2013-08-27 08:54:00,
2013-08-27 01:59:00,58.8,42.2,29.81,ESE,105,3.1,3.6,54,0.00,,CLR,0.00,VWS V14.01,2013-08-27 08:59:00,
2013-08-27 02:04:00,59.0,42.9,29.81,ESE,105,4.0,4.5,55,0.00,,CLR,0.00,VWS V14.01,2013-08-27 09:04:00,
2013-08-27 02:09:00,58.6,41.1,29.81,ESE,105,0.0,0.0,52,0.00,,CLR,0.00,VWS V14.01,2013-08-27 09:09:00,
2013-08-27 02:14:00,58.1,41.1,29.81,ESE,105,4.0,4.5,53,0.00,,CLR,0.00,VWS V14.01,2013-08-27 09:14:00,
2013-08-27 02:19:00,57.7,42.2,29.81,ESE,105,4.0,4.5,56,0.00,,CLR,0.00,VWS V14.01,2013-08-27 09:19:00,
2013-08-27 02:24:00,57.6,42.0,29.81,ESE,105,3.6,4.0,56,0.00,,CLR,0.00,VWS V14.01,2013-08-27 09:24:00,
2013-08-27 02:29:00,57.6,42.5,29.81,ESE,105,4.0,4.9,57,0.00,,CLR,0.00,VWS V14.01,2013-08-27 09:29:00,
2013-08-27 02:34:00,57.6,42.9,29.81,ESE,105,4.0,4.0,58,0.00,,CLR,0.00,VWS V14.01,2013-08-27 09:34:00,
2013-08-27 02:39:00,57.6,42.5,29.81,ESE,105,4.5,4.9,57,0.00,,CLR,0.00,VWS V14.01,2013-08-27 09:39:00,
2013-08-27 02:44:00,57.7,42.6,29.81,ESE,105,4.0,4.9,57,0.00,,CLR,0.00,VWS V14.01,2013-08-27 09:44:00,
2013-08-27 02:49:00,57.6,42.0,29.81,ESE,105,3.6,4.5,56,0.00,,CLR,0.00,VWS V14.01,2013-08-27 09:49:00,
2013-08-27 02:54:00,57.6,42.9,29.81,ESE,105,3.6,4.0,58,0.00,,CLR,0.00,VWS V14.01,2013-08-27 09:54:00,
2013-08-27 02:59:00,57.7,43.1,29.81,ESE,105,4.0,4.0,58,0.00,,CLR,0.00,VWS V14.01,2013-08-27 09:59:00,
2013-08-27 03:04:00,57.6,42.5,29.78,ESE,105,3.1,4.5,57,0.00,,CLR,0.00,VWS V14.01,2013-08-27 10:04:00,
2013-08-27 03:09:00,57.4,42.3,29.78,ESE,105,4.0,4.0,57,0.00,,CLR,0.00,VWS V14.01,2013-08-27 10:09:00,
2013-08-27 03:14:00,57.2,42.6,29.78,ESE,105,3.1,4.0,58,0.00,,CLR,0.00,VWS V14.01,2013-08-27 10:14:00,
2013-08-27 03:19:00,56.8,41.8,29.78,ESE,105,3.6,4.0,57,0.00,,CLR,0.00,VWS V14.01,2013-08-27 10:19:00,
2013-08-27 03:24:00,56.8,43.1,29.78,ESE,105,3.6,3.6,60,0.00,,CLR,0.00,VWS V14.01,2013-08-27 10:24:00,
2013-08-27 03:29:00,56.8,42.7,29.78,ESE,105,4.0,4.0,59,0.00,,CLR,0.00,VWS V14.01,2013-08-27 10:29:00,
2013-08-27 03:35:00,56.5,42.8,29.78,ESE,105,4.5,4.5,60,0.00,,CLR,0.00,VWS V14.01,2013-08-27 10:35:00,
2013-08-27 03:40:00,56.5,42.8,29.78,ESE,105,4.5,4.5,60,0.00,,CLR,0.00,VWS V14.01,2013-08-27 10:40:00,
2013-08-27 03:45:00,56.1,42.9,29.78,ESE,105,4.0,4.0,61,0.00,,CLR,0.00,VWS V14.01,2013-08-27 10:45:00,
2013-08-27 03:50:00,56.1,43.7,29.78,ESE,105,4.0,4.5,63,0.00,,CLR,0.00,VWS V14.01,2013-08-27 10:50:00,
2013-08-27 03:55:00,56.3,43.9,29.78,ESE,105,3.6,4.5,63,0.00,,CLR,0.00,VWS V14.01,2013-08-27 10:55:00,
2013-08-27 04:00:00,56.5,44.0,29.78,ESE,105,3.1,3.6,63,0.00,,CLR,0.00,VWS V14.01,2013-08-27 11:00:00,
2013-08-27 04:05:00,56.5,43.2,29.78,ESE,105,3.6,4.0,61,0.00,,CLR,0.00,VWS V14.01,2013-08-27 11:05:00,
2013-08-27 04:10:00,56.3,43.5,29.78,ESE,105,3.6,4.0,62,0.00,,CLR,0.00,VWS V14.01,2013-08-27 11:10:00,
2013-08-27 04:15:00,56.3,44.3,29.78,ESE,105,4.0,4.5,64,0.00,,CLR,0.00,VWS V14.01,2013-08-27 11:15:00,
2013-08-27 04:20:00,56.1,42.9,29.78,ESE,105,4.0,4.5,61,0.00,,CLR,0.00,VWS V14.01,2013-08-27 11:20:00,
2013-08-27 04:25:00,55.9,43.1,29.78,ESE,105,3.6,4.5,62,0.00,,CLR,0.00,VWS V14.01,2013-08-27 11:25:00,
2013-08-27 04:30:00,55.9,44.0,29.78,ESE,105,3.6,4.5,64,0.00,,CLR,0.00,VWS V14.01,2013-08-27 11:30:00,
2013-08-27 04:36:00,55.9,44.0,29.78,ESE,105,3.6,4.0,64,0.00,,CLR,0.00,VWS V14.01,2013-08-27 11:36:00,
2013-08-27 04:41:00,55.9,44.4,29.78,ESE,105,3.6,4.0,65,0.00,,CLR,0.00,VWS V14.01,2013-08-27 11:41:00,
2013-08-27 04:46:00,55.9,44.0,29.78,ESE,106,3.6,4.0,64,0.00,,CLR,0.00,VWS V14.01,2013-08-27 11:46:00,
2013-08-27 04:51:00,55.9,44.0,29.78,ESE,106,3.6,4.0,64,0.00,,CLR,0.00,VWS V14.01,2013-08-27 11:51:00,
2013-08-27 04:56:00,55.8,44.2,29.78,ESE,105,3.6,4.9,65,0.00,,CLR,0.00,VWS V14.01,2013-08-27 11:56:00,
2013-08-27 05:01:00,55.6,44.0,29.78,ESE,106,4.0,4.0,65,0.00,,CLR,0.00,VWS V14.01,2013-08-27 12:01:00,
2013-08-27 05:06:00,55.6,44.4,29.78,ESE,105,4.5,4.9,66,0.00,,CLR,0.00,VWS V14.01,2013-08-27 12:06:00,
2013-08-27 05:11:00,55.6,44.4,29.78,ESE,105,3.6,3.6,66,0.00,,CLR,0.00,VWS V14.01,2013-08-27 12:11:00,
2013-08-27 05:16:00,55.4,44.2,29.78,ESE,105,3.6,3.6,66,0.00,,CLR,0.00,VWS V14.01,2013-08-27 12:16:00,
2013-08-27 05:21:00,55.4,44.6,29.78,ESE,105,3.1,3.6,67,0.00,,CLR,0.00,VWS V14.01,2013-08-27 12:21:00,
2013-08-27 05:26:00,55.4,44.2,29.78,ESE,106,4.0,4.5,66,0.00,,CLR,0.00,VWS V14.01,2013-08-27 12:26:00,
2013-08-27 05:31:00,55.2,44.1,29.78,ESE,106,3.6,4.0,66,0.00,,CLR,0.00,VWS V14.01,2013-08-27 12:31:00,
2013-08-27 05:37:00,55.0,43.9,29.78,ESE,105,3.6,4.0,66,0.00,,CLR,0.00,VWS V14.01,2013-08-27 12:37:00,
2013-08-27 05:42:00,55.0,43.9,29.78,ESE,105,3.1,3.6,66,0.00,,CLR,0.00,VWS V14.01,2013-08-27 12:42:00,
2013-08-27 05:47:00,55.0,43.9,29.78,ESE,105,3.6,3.6,66,0.00,,CLR,0.00,VWS V14.01,2013-08-27 12:47:00,
2013-08-27 05:52:00,55.0,44.7,29.78,ESE,105,3.1,3.6,68,0.00,,CLR,0.00,VWS V14.01,2013-08-27 12:52:00,
2013-08-27 05:57:00,55.0,44.7,29.78,ESE,106,4.0,4.5,68,0.00,,CLR,0.00,VWS V14.01,2013-08-27 12:57:00,
2013-08-27 06:02:00,55.0,44.7,29.78,ESE,105,3.6,4.0,68,0.00,,CLR,0.00,VWS V14.01,2013-08-27 13:02:00,
2013-08-27 06:07:00,54.9,43.3,29.78,ESE,105,4.9,5.4,65,0.00,,CLR,0.00,VWS V14.01,2013-08-27 13:07:00,
2013-08-27 06:12:00,54.9,44.1,29.78,ESE,106,4.0,4.0,67,0.00,,CLR,0.00,VWS V14.01,2013-08-27 13:12:00,
2013-08-27 06:17:00,54.9,44.5,29.78,ESE,105,3.1,4.0,68,0.00,,CLR,0.00,VWS V14.01,2013-08-27 13:17:00,
2013-08-27 06:22:00,54.7,44.3,29.78,ESE,105,3.6,4.0,68,0.00,,CLR,0.00,VWS V14.01,2013-08-27 13:22:00,
2013-08-27 06:27:00,54.5,44.5,29.78,ESE,105,4.0,4.0,69,0.00,,CLR,0.00,VWS V14.01,2013-08-27 13:27:00,
2013-08-27 06:32:00,54.7,44.7,29.78,ESE,105,3.6,4.0,69,0.00,,CLR,0.00,VWS V14.01,2013-08-27 13:32:00,
2013-08-27 06:37:00,54.9,44.9,29.78,ESE,105,3.1,3.6,69,0.00,,CLR,0.00,VWS V14.01,2013-08-27 13:37:00,
2013-08-27 06:43:00,55.0,44.7,29.78,ESE,105,3.6,3.6,68,0.00,,CLR,0.00,VWS V14.01,2013-08-27 13:43:00,
2013-08-27 06:48:00,55.0,44.7,29.78,ESE,105,3.6,4.0,68,0.00,,CLR,0.00,VWS V14.01,2013-08-27 13:48:00,
2013-08-27 06:53:00,55.0,44.3,29.78,ESE,106,3.1,4.9,67,0.00,,CLR,0.00,VWS V14.01,2013-08-27 13:53:00,
2013-08-27 06:58:00,55.0,44.7,29.78,ESE,105,4.0,4.5,68,0.00,,CLR,0.00,VWS V14.01,2013-08-27 13:58:00,
2013-08-27 07:03:00,55.4,44.6,29.78,ESE,106,3.6,3.6,67,0.00,,CLR,0.00,VWS V14.01,2013-08-27 14:03:00,
2013-08-27 07:08:00,55.8,45.0,29.78,East,99,3.1,4.0,67,0.00,,CLR,0.00,VWS V14.01,2013-08-27 14:08:00,
2013-08-27 07:13:00,56.3,44.7,29.78,East,99,0.0,3.6,65,0.00,,CLR,0.00,VWS V14.01,2013-08-27 14:13:00,
2013-08-27 07:18:00,57.2,45.2,29.78,East,99,3.6,4.5,64,0.00,,CLR,0.00,VWS V14.01,2013-08-27 14:18:00,
2013-08-27 07:23:00,59.0,45.2,29.78,East,99,3.1,3.1,60,0.00,,CLR,0.00,VWS V14.01,2013-08-27 14:23:00,
2013-08-27 07:28:00,60.1,43.4,29.78,East,99,0.0,3.1,54,0.00,,CLR,0.00,VWS V14.01,2013-08-27 14:28:00,
2013-08-27 07:33:00,61.3,43.6,29.78,East,100,0.0,0.0,52,0.00,,CLR,0.00,VWS V14.01,2013-08-27 14:33:00,
2013-08-27 07:38:00,62.2,42.9,29.78,East,99,0.0,0.0,49,0.00,,CLR,0.00,VWS V14.01,2013-08-27 14:38:00,
2013-08-27 07:44:00,63.1,42.6,29.78,East,99,0.0,0.0,47,0.00,,CLR,0.00,VWS V14.01,2013-08-27 14:44:00,
2013-08-27 07:49:00,63.7,43.1,29.78,East,99,0.0,0.0,47,0.00,,CLR,0.00,VWS V14.01,2013-08-27 14:49:00,
2013-08-27 07:54:00,64.9,44.2,29.78,East,99,0.0,0.0,47,0.00,,CLR,0.00,VWS V14.01,2013-08-27 14:54:00,
2013-08-27 07:59:00,66.4,44.4,29.78,East,99,0.0,0.0,45,0.00,,CLR,0.00,VWS V14.01,2013-08-27 14:59:00,
2013-08-27 08:04:00,67.5,44.2,29.78,East,99,0.0,0.0,43,0.00,,CLR,0.00,VWS V14.01,2013-08-27 15:04:00,
2013-08-27 08:09:00,68.5,43.3,29.78,East,99,0.0,0.0,40,0.00,,CLR,0.00,VWS V14.01,2013-08-27 15:09:00,
2013-08-27 08:14:00,69.8,43.1,29.78,East,99,0.0,0.0,38,0.00,,CLR,0.00,VWS V14.01,2013-08-27 15:14:00,
2013-08-27 08:19:00,70.9,42.6,29.78,East,99,0.0,0.0,36,0.00,,CLR,0.00,VWS V14.01,2013-08-27 15:19:00,
2013-08-27 08:24:00,71.8,42.7,29.78,East,99,0.0,0.0,35,0.00,,CLR,0.00,VWS V14.01,2013-08-27 15:24:00,
2013-08-27 08:29:00,72.7,42.0,29.78,East,99,0.0,0.0,33,0.00,,CLR,0.00,VWS V14.01,2013-08-27 15:29:00,
2013-08-27 08:34:00,73.6,42.7,29.78,East,99,0.0,0.0,33,0.00,,CLR,0.00,VWS V14.01,2013-08-27 15:34:00,
2013-08-27 08:39:00,73.8,41.3,29.78,East,100,0.0,0.0,31,0.00,,CLR,0.00,VWS V14.01,2013-08-27 15:39:00,
2013-08-27 08:45:00,74.3,41.7,29.78,East,99,0.0,0.0,31,0.00,,CLR,0.00,VWS V14.01,2013-08-27 15:45:00,
2013-08-27 08:50:00,75.2,42.5,29.78,East,99,0.0,0.0,31,0.00,,CLR,0.00,VWS V14.01,2013-08-27 15:50:00,
2013-08-27 08:55:00,75.6,38.3,29.78,East,95,0.0,0.0,26,0.00,,CLR,0.00,VWS V14.01,2013-08-27 15:55:00,
2013-08-27 09:00:00,75.6,39.3,29.78,North,351,3.6,4.5,27,0.00,,CLR,0.00,VWS V14.01,2013-08-27 16:00:00,
2013-08-27 09:05:00,76.1,39.7,29.78,NNW,337,4.0,5.8,27,0.00,,CLR,0.00,VWS V14.01,2013-08-27 16:05:00,
2013-08-27 09:10:00,76.6,38.2,29.78,NNW,337,2.7,5.8,25,0.00,,CLR,0.00,VWS V14.01,2013-08-27 16:10:00,
2013-08-27 09:15:00,77.4,37.8,29.78,NNW,336,3.6,3.6,24,0.00,,CLR,0.00,VWS V14.01,2013-08-27 16:15:00,
2013-08-27 09:20:00,78.1,37.3,29.78,NNW,337,3.1,4.0,23,0.00,,CLR,0.00,VWS V14.01,2013-08-27 16:20:00,
2013-08-27 09:25:00,78.3,36.3,29.78,NNW,335,2.7,5.4,22,0.00,,CLR,0.00,VWS V14.01,2013-08-27 16:25:00,
2013-08-27 09:30:00,78.4,36.5,29.78,NW,316,2.7,4.9,22,0.00,,CLR,0.00,VWS V14.01,2013-08-27 16:30:00,
2013-08-27 09:35:00,79.0,38.1,29.78,WNW,294,5.4,6.3,23,0.00,,CLR,0.00,VWS V14.01,2013-08-27 16:35:00,
2013-08-27 09:41:00,79.2,37.1,29.78,SW,224,2.7,4.9,22,0.00,,CLR,0.00,VWS V14.01,2013-08-27 16:41:00,
2013-08-27 09:46:00,79.7,36.3,29.78,WSW,248,5.4,6.9,21,0.00,,CLR,0.00,VWS V14.01,2013-08-27 16:46:00,
2013-08-27 09:51:00,80.4,37.0,29.78,West,260,3.6,4.0,21,0.00,,CLR,0.00,VWS V14.01,2013-08-27 16:51:00,
2013-08-27 09:56:00,80.8,37.2,29.78,WSW,257,0.0,4.9,21,0.00,,CLR,0.00,VWS V14.01,2013-08-27 16:56:00,
2013-08-27 10:01:00,81.5,36.6,29.78,SW,226,5.4,6.3,20,0.00,,CLR,0.00,VWS V14.01,2013-08-27 17:01:00,
2013-08-27 10:06:00,81.1,37.5,29.78,WSW,240,4.5,5.8,21,0.00,,CLR,0.00,VWS V14.01,2013-08-27 17:06:00,
2013-08-27 10:11:00,82.0,37.0,29.78,SW,234,5.8,6.9,20,0.00,,CLR,0.00,VWS V14.01,2013-08-27 17:11:00,
2013-08-27 10:16:00,82.6,38.7,29.78,South,178,4.9,6.7,21,0.00,,CLR,0.00,VWS V14.01,2013-08-27 17:16:00,
2013-08-27 10:21:00,82.4,38.6,29.78,SW,221,4.0,6.9,21,0.00,,CLR,0.00,VWS V14.01,2013-08-27 17:21:00,
2013-08-27 10:26:00,82.8,38.9,29.78,SW,228,4.9,7.4,21,0.00,,CLR,0.00,VWS V14.01,2013-08-27 17:26:00,
2013-08-27 10:31:00,83.1,39.2,29.78,SW,228,4.9,6.7,21,0.00,,CLR,0.00,VWS V14.01,2013-08-27 17:31:00,
2013-08-27 10:36:00,83.3,38.1,29.78,SW,219,5.4,7.8,20,0.00,,CLR,0.00,VWS V14.01,2013-08-27 17:36:00,
2013-08-27 10:41:00,83.5,38.2,29.78,West,265,4.5,5.8,20,0.00,,CLR,0.00,VWS V14.01,2013-08-27 17:41:00,
2013-08-27 10:46:00,83.3,39.3,29.78,WSW,241,6.3,9.2,21,0.00,,CLR,0.00,VWS V14.01,2013-08-27 17:46:00,
2013-08-27 10:51:00,83.3,38.1,29.78,WSW,258,6.3,9.6,20,0.00,,CLR,0.00,VWS V14.01,2013-08-27 17:51:00,
2013-08-27 10:56:00,83.8,38.5,29.78,WNW,284,4.0,7.4,20,0.00,,CLR,0.00,VWS V14.01,2013-08-27 17:56:00,
2013-08-27 11:01:00,84.2,38.8,29.78,SW,217,5.8,7.8,20,0.00,,CLR,0.00,VWS V14.01,2013-08-27 18:01:00,
2013-08-27 11:06:00,84.0,38.7,29.78,WSW,245,6.7,7.4,20,0.00,,CLR,0.00,VWS V14.01,2013-08-27 18:06:00,
2013-08-27 11:11:00,84.2,38.8,29.78,West,274,5.8,9.2,20,0.00,,CLR,0.00,VWS V14.01,2013-08-27 18:11:00,
2013-08-27 11:16:00,84.6,39.1,29.78,SSW,211,6.9,8.3,20,0.00,,CLR,0.00,VWS V14.01,2013-08-27 18:16:00,
2013-08-27 11:21:00,84.4,37.7,29.78,SW,224,6.9,7.4,19,0.00,,CLR,0.00,VWS V14.01,2013-08-27 18:21:00,
2013-08-27 11:26:00,85.3,38.4,29.78,West,260,7.4,7.4,19,0.00,,CLR,0.00,VWS V14.01,2013-08-27 18:26:00,
2013-08-27 11:31:00,86.0,39.0,29.78,SW,221,5.4,7.8,19,0.00,,CLR,0.00,VWS V14.01,2013-08-27 18:31:00,
2013-08-27 11:36:00,86.2,39.1,29.78,WSW,245,6.9,8.3,19,0.00,,CLR,0.00,VWS V14.01,2013-08-27 18:36:00,
2013-08-27 11:42:00,86.2,39.1,29.78,WSW,255,6.7,6.9,19,0.00,,CLR,0.00,VWS V14.01,2013-08-27 18:42:00,
2013-08-27 11:47:00,86.4,39.3,29.78,SW,233,8.3,8.7,19,0.00,,CLR,0.00,VWS V14.01,2013-08-27 18:47:00,
2013-08-27 11:52:00,86.9,38.3,29.78,SW,220,3.6,7.4,18,0.00,,CLR,0.00,VWS V14.01,2013-08-27 18:52:00,
2013-08-27 11:57:00,86.9,39.7,29.78,WSW,241,8.3,11.6,19,0.00,,CLR,0.00,VWS V14.01,2013-08-27 18:57:00,
2013-08-27 12:02:00,87.4,38.8,29.78,West,275,10.1,10.1,18,0.00,,CLR,0.00,VWS V14.01,2013-08-27 19:02:00,
2013-08-27 12:07:00,87.3,38.6,29.78,WSW,242,6.7,8.7,18,0.00,,CLR,0.00,VWS V14.01,2013-08-27 19:07:00,
2013-08-27 12:12:00,87.1,38.5,29.78,West,278,4.5,8.3,18,0.00,,CLR,0.00,VWS V14.01,2013-08-27 19:12:00,
2013-08-27 12:17:00,86.4,39.3,29.78,WNW,295,6.7,7.4,19,0.00,,CLR,0.00,VWS V14.01,2013-08-27 19:17:00,
2013-08-27 12:22:00,86.9,38.3,29.78,SSW,205,3.6,5.8,18,0.00,,CLR,0.00,VWS V14.01,2013-08-27 19:22:00,
2013-08-27 12:27:00,88.0,39.2,29.78,SW,220,10.5,10.5,18,0.00,,CLR,0.00,VWS V14.01,2013-08-27 19:27:00,
2013-08-27 12:32:00,88.2,39.4,29.78,SSW,208,5.8,7.4,18,0.00,,CLR,0.00,VWS V14.01,2013-08-27 19:32:00,
2013-08-27 12:37:00,88.7,39.8,29.78,WNW,301,6.3,10.1,18,0.00,,CLR,0.00,VWS V14.01,2013-08-27 19:37:00,
2013-08-27 12:43:00,88.3,39.5,29.78,West,265,8.3,10.5,18,0.00,,CLR,0.00,VWS V14.01,2013-08-27 19:43:00,
2013-08-27 12:48:00,88.7,39.8,29.78,West,261,7.4,9.2,18,0.00,,CLR,0.00,VWS V14.01,2013-08-27 19:48:00,
2013-08-27 12:53:00,88.5,39.7,29.78,WNW,286,4.0,9.6,18,0.00,,CLR,0.00,VWS V14.01,2013-08-27 19:53:00,
2013-08-27 12:58:00,88.9,38.5,29.78,South,189,4.9,4.9,17,0.00,,CLR,0.00,VWS V14.01,2013-08-27 19:58:00,
2013-08-27 13:03:00,89.4,38.9,29.78,WNW,290,9.6,9.6,17,0.00,,CLR,0.00,VWS V14.01,2013-08-27 20:03:00,
2013-08-27 13:08:00,89.4,38.9,29.78,West,273,8.7,8.7,17,0.00,,CLR,0.00,VWS V14.01,2013-08-27 20:08:00,
2013-08-27 13:13:00,90.0,39.3,29.78,West,274,6.3,6.7,17,0.00,,CLR,0.00,VWS V14.01,2013-08-27 20:13:00,
2013-08-27 13:18:00,90.0,39.3,29.78,WNW,290,0.0,6.3,17,0.00,,CLR,0.00,VWS V14.01,2013-08-27 20:18:00,
2013-08-27 13:23:00,90.0,39.3,29.78,WSW,258,4.5,8.7,17,0.00,,CLR,0.00,VWS V14.01,2013-08-27 20:23:00,
2013-08-27 13:28:00,90.9,40.1,29.78,WSW,251,7.4,9.6,17,0.00,,CLR,0.00,VWS V14.01,2013-08-27 20:28:00,
2013-08-27 13:33:00,90.7,39.9,29.78,WSW,250,4.0,6.9,17,0.00,,CLR,0.00,VWS V14.01,2013-08-27 20:33:00,
2013-08-27 13:38:00,90.9,40.1,29.78,SSW,208,5.8,6.7,17,0.00,,CLR,0.00,VWS V14.01,2013-08-27 20:38:00,
2013-08-27 13:44:00,91.4,35.6,29.78,SSE,159,8.3,8.3,14,0.00,,CLR,0.00,VWS V14.01,2013-08-27 20:44:00,
2013-08-27 13:49:00,91.4,35.6,29.75,SW,234,7.8,11.2,14,0.00,,CLR,0.00,VWS V14.01,2013-08-27 20:49:00,
2013-08-27 13:54:00,90.5,34.8,29.75,SSW,206,4.5,4.9,14,0.00,,CLR,0.00,VWS V14.01,2013-08-27 20:54:00,
2013-08-27 13:59:00,91.2,35.4,29.75,WSW,242,6.3,12.1,14,0.00,,CLR,0.00,VWS V14.01,2013-08-27 20:59:00,
2013-08-27 14:04:00,92.3,36.3,29.75,WNW,283,6.7,9.6,14,0.00,,CLR,0.00,VWS V14.01,2013-08-27 21:04:00,
2013-08-27 14:09:00,91.8,35.8,29.75,NNW,327,6.7,8.7,14,0.00,,CLR,0.00,VWS V14.01,2013-08-27 21:09:00,
2013-08-27 14:14:00,91.8,35.8,29.75,WSW,254,7.8,10.1,14,0.00,,CLR,0.00,VWS V14.01,2013-08-27 21:14:00,
2013-08-27 14:19:00,92.3,36.3,29.75,WNW,289,0.0,6.9,14,0.00,,CLR,0.00,VWS V14.01,2013-08-27 21:19:00,
2013-08-27 14:24:00,92.3,36.3,29.75,SW,219,5.4,8.7,14,0.00,,CLR,0.00,VWS V14.01,2013-08-27 21:24:00,
2013-08-27 14:29:00,92.5,36.4,29.75,WNW,282,8.7,12.5,14,0.00,,CLR,0.00,VWS V14.01,2013-08-27 21:29:00,
2013-08-27 14:34:00,91.6,35.7,29.75,West,275,6.7,9.6,14,0.00,,CLR,0.00,VWS V14.01,2013-08-27 21:34:00,
2013-08-27 14:39:00,91.9,36.0,29.75,WSW,247,7.4,10.5,14,0.00,,CLR,0.00,VWS V14.01,2013-08-27 21:39:00,
2013-08-27 14:45:00,92.3,36.3,29.75,WSW,252,3.1,6.9,14,0.00,,CLR,0.00,VWS V14.01,2013-08-27 21:45:00,
2013-08-27 14:50:00,92.5,36.4,29.75,WNW,290,11.0,13.0,14,0.00,,CLR,0.00,VWS V14.01,2013-08-27 21:50:00,
2013-08-27 14:55:00,92.5,36.4,29.75,West,262,5.8,6.7,14,0.00,,CLR,0.00,VWS V14.01,2013-08-27 21:55:00,
2013-08-27 15:00:00,92.1,36.1,29.75,West,280,7.4,8.7,14,0.00,,CLR,0.00,VWS V14.01,2013-08-27 22:00:00,
2013-08-27 15:05:00,92.7,36.5,29.75,West,279,10.5,11.0,14,0.00,,CLR,0.00,VWS V14.01,2013-08-27 22:05:00,
2013-08-27 15:10:00,92.5,36.4,29.75,WNW,289,6.9,10.5,14,0.00,,CLR,0.00,VWS V14.01,2013-08-27 22:10:00,
2013-08-27 15:15:00,92.5,36.4,29.75,West,272,9.2,11.0,14,0.00,,CLR,0.00,VWS V14.01,2013-08-27 22:15:00,
2013-08-27 15:20:00,92.5,36.4,29.75,WSW,248,6.3,9.6,14,0.00,,CLR,0.00,VWS V14.01,2013-08-27 22:20:00,
2013-08-27 15:25:00,92.3,36.3,29.75,West,271,10.1,10.1,14,0.00,,CLR,0.00,VWS V14.01,2013-08-27 22:25:00,
2013-08-27 15:30:00,92.8,36.7,29.75,West,270,6.3,7.8,14,0.00,,CLR,0.00,VWS V14.01,2013-08-27 22:30:00,
2013-08-27 15:35:00,92.1,36.1,29.75,SSW,203,6.3,9.2,14,0.00,,CLR,0.00,VWS V14.01,2013-08-27 22:35:00,
2013-08-27 15:40:00,92.5,36.4,29.75,West,271,5.4,8.7,14,0.00,,CLR,0.00,VWS V14.01,2013-08-27 22:40:00,
2013-08-27 15:46:00,92.1,41.1,29.75,West,263,5.8,6.7,17,0.00,,CLR,0.00,VWS V14.01,2013-08-27 22:46:00,
2013-08-27 15:51:00,92.7,36.5,29.72,WNW,294,6.9,11.2,14,0.00,,CLR,0.00,VWS V14.01,2013-08-27 22:51:00,
2013-08-27 15:56:00,92.8,36.7,29.72,WSW,249,6.7,12.5,14,0.00,,CLR,0.00,VWS V14.01,2013-08-27 22:56:00,
2013-08-27 16:01:00,92.8,36.7,29.72,SSW,206,3.1,3.6,14,0.00,,CLR,0.00,VWS V14.01,2013-08-27 23:01:00,
2013-08-27 16:06:00,92.7,36.5,29.72,WSW,255,6.9,8.3,14,0.00,,CLR,0.00,VWS V14.01,2013-08-27 23:06:00,
2013-08-27 16:11:00,92.7,36.5,29.72,WNW,282,7.4,8.3,14,0.00,,CLR,0.00,VWS V14.01,2013-08-27 23:11:00,
2013-08-27 16:16:00,91.8,35.8,29.72,NNW,339,0.0,0.0,14,0.00,,CLR,0.00,VWS V14.01,2013-08-27 23:16:00,
2013-08-27 16:21:00,91.8,35.8,29.72,West,264,10.1,10.1,14,0.00,,CLR,0.00,VWS V14.01,2013-08-27 23:21:00,
2013-08-27 16:26:00,92.3,36.3,29.72,West,264,5.4,6.9,14,0.00,,CLR,0.00,VWS V14.01,2013-08-27 23:26:00,
2013-08-27 16:31:00,92.3,36.3,29.72,West,278,11.2,11.6,14,0.00,,CLR,0.00,VWS V14.01,2013-08-27 23:31:00,
2013-08-27 16:36:00,92.3,36.3,29.72,WNW,298,3.1,3.1,14,0.00,,CLR,0.00,VWS V14.01,2013-08-27 23:36:00,
2013-08-27 16:41:00,92.5,36.4,29.72,SSW,210,6.9,13.0,14,0.00,,CLR,0.00,VWS V14.01,2013-08-27 23:41:00,
2013-08-27 16:47:00,91.9,36.0,29.72,South,186,3.6,3.6,14,0.00,,CLR,0.00,VWS V14.01,2013-08-27 23:47:00,
2013-08-27 16:53:00,92.3,36.3,29.72,WSW,247,2.7,7.8,14,0.00,,CLR,0.00,VWS V14.01,2013-08-27 23:53:00,
2013-08-27 16:58:00,91.9,36.0,29.72,SW,215,5.4,5.4,14,0.00,,CLR,0.00,VWS V14.01,2013-08-27 23:58:00,
2013-08-27 17:03:00,92.5,36.4,29.72,SSW,211,4.0,9.2,14,0.00,,CLR,0.00,VWS V14.01,2013-08-28 00:03:00,
2013-08-27 17:08:00,92.8,36.7,29.72,SW,235,5.8,5.8,14,0.00,,CLR,0.00,VWS V14.01,2013-08-28 00:08:00,
2013-08-27 17:13:00,93.0,36.8,29.72,West,268,5.4,9.2,14,0.00,,CLR,0.00,VWS V14.01,2013-08-28 00:13:00,
2013-08-27 17:18:00,92.7,36.5,29.72,SW,214,6.9,6.9,14,0.00,,CLR,0.00,VWS V14.01,2013-08-28 00:18:00,
2013-08-27 17:23:00,92.5,36.4,29.72,WSW,238,4.0,7.4,14,0.00,,CLR,0.00,VWS V14.01,2013-08-28 00:23:00,
2013-08-27 17:28:00,92.5,36.4,29.72,WSW,247,3.1,4.5,14,0.00,,CLR,0.00,VWS V14.01,2013-08-28 00:28:00,
2013-08-27 17:33:00,92.1,36.1,29.72,West,267,6.3,6.9,14,0.00,,CLR,0.00,VWS V14.01,2013-08-28 00:33:00,
2013-08-27 17:38:00,92.1,36.1,29.72,West,263,6.7,10.1,14,0.00,,CLR,0.00,VWS V14.01,2013-08-28 00:38:00,
2013-08-27 17:43:00,91.8,35.8,29.72,West,261,4.5,6.7,14,0.00,,CLR,0.00,VWS V14.01,2013-08-28 00:43:00,
2013-08-27 17:49:00,91.9,36.0,29.72,SSW,203,4.0,7.4,14,0.00,,CLR,0.00,VWS V14.01,2013-08-28 00:49:00,
2013-08-27 17:54:00,91.8,35.8,29.72,WNW,288,7.8,10.5,14,0.00,,CLR,0.00,VWS V14.01,2013-08-28 00:54:00,
2013-08-27 17:59:00,91.4,35.6,29.72,West,278,6.9,8.7,14,0.00,,CLR,0.00,VWS V14.01,2013-08-28 00:59:00,
2013-08-27 18:05:00,91.6,35.7,29.72,WNW,288,6.9,6.9,14,0.00,,FEW180,0.00,VWS V14.01,2013-08-28 01:05:00,
2013-08-27 18:10:00,91.2,35.4,29.72,SSW,213,4.9,6.7,14,0.00,,FEW180,0.00,VWS V14.01,2013-08-28 01:10:00,
2013-08-27 18:15:00,90.9,35.1,29.72,West,271,0.0,4.0,14,0.00,,FEW180,0.00,VWS V14.01,2013-08-28 01:15:00,
2013-08-27 18:20:00,91.0,35.3,29.72,WNW,293,4.0,7.4,14,0.00,,FEW180,0.00,VWS V14.01,2013-08-28 01:20:00,
2013-08-27 18:25:00,90.9,35.1,29.72,SW,224,3.1,4.5,14,0.00,,FEW180,0.00,VWS V14.01,2013-08-28 01:25:00,
2013-08-27 18:30:00,90.9,35.1,29.72,West,274,4.9,5.8,14,0.00,,FEW180,0.00,VWS V14.01,2013-08-28 01:30:00,
2013-08-27 18:35:00,90.7,35.0,29.72,West,263,2.7,6.9,14,0.00,,FEW180,0.00,VWS V14.01,2013-08-28 01:35:00,
2013-08-27 18:40:00,90.1,36.3,29.72,SW,216,6.7,7.4,15,0.00,,FEW180,0.00,VWS V14.01,2013-08-28 01:40:00,
2013-08-27 18:46:00,89.6,35.9,29.72,WSW,242,6.7,7.4,15,0.00,,FEW180,0.00,VWS V14.01,2013-08-28 01:46:00,
2013-08-27 18:51:00,89.8,36.0,29.72,West,270,5.8,6.3,15,0.00,,FEW180,0.00,VWS V14.01,2013-08-28 01:51:00,
2013-08-27 18:56:00,89.8,36.0,29.72,SW,229,5.8,6.7,15,0.00,,FEW180,0.00,VWS V14.01,2013-08-28 01:56:00,
2013-08-27 19:01:00,89.2,35.6,29.72,West,261,4.5,4.9,15,0.00,,FEW180,0.00,VWS V14.01,2013-08-28 02:01:00,
2013-08-27 19:06:00,89.1,35.5,29.72,WSW,240,4.0,7.8,15,0.00,,FEW180,0.00,VWS V14.01,2013-08-28 02:06:00,
2013-08-27 19:11:00,88.5,35.0,29.72,SW,218,9.6,9.6,15,0.00,,FEW180,0.00,VWS V14.01,2013-08-28 02:11:00,
2013-08-27 19:16:00,87.6,34.3,29.72,SW,219,7.4,9.2,15,0.00,,FEW180,0.00,VWS V14.01,2013-08-28 02:16:00,
2013-08-27 19:21:00,87.3,34.0,29.72,West,265,6.7,9.6,15,0.00,,FEW180,0.00,VWS V14.01,2013-08-28 02:21:00,
2013-08-27 19:26:00,87.1,33.9,29.72,SW,224,3.6,7.4,15,0.00,,FEW180,0.00,VWS V14.01,2013-08-28 02:26:00,
2013-08-27 19:31:00,86.9,38.3,29.72,SW,216,7.4,11.6,18,0.00,,FEW180,0.00,VWS V14.01,2013-08-28 02:31:00,
2013-08-27 19:36:00,86.4,37.9,29.72,SSW,203,4.5,7.4,18,0.00,,FEW180,0.00,VWS V14.01,2013-08-28 02:36:00,
2013-08-27 19:41:00,85.8,37.5,29.72,SW,228,6.7,6.7,18,0.00,,FEW180,0.00,VWS V14.01,2013-08-28 02:41:00,
2013-08-27 19:47:00,85.3,37.0,29.72,SSW,210,6.7,6.7,18,0.00,,FEW180,0.00,VWS V14.01,2013-08-28 02:47:00,
2013-08-27 19:52:00,84.7,36.6,29.72,SSW,205,6.7,6.7,18,0.00,,FEW180,0.00,VWS V14.01,2013-08-28 02:52:00,
2013-08-27 19:57:00,84.2,36.2,29.72,SW,220,11.2,12.1,18,0.00,,FEW180,0.00,VWS V14.01,2013-08-28 02:57:00,
2013-08-27 20:02:00,83.8,35.8,29.72,WSW,237,5.4,6.9,18,0.00,,SCT180,0.00,VWS V14.01,2013-08-28 03:02:00,
2013-08-27 20:07:00,83.5,35.6,29.72,SW,225,6.9,7.4,18,0.00,,SCT180,0.00,VWS V14.01,2013-08-28 03:07:00,
2013-08-27 20:12:00,82.9,36.5,29.72,SSW,208,6.9,7.4,19,0.00,,SCT180,0.00,VWS V14.01,2013-08-28 03:12:00,
2013-08-27 20:17:00,82.6,36.2,29.72,SSW,202,3.6,5.8,19,0.00,,SCT180,0.00,VWS V14.01,2013-08-28 03:17:00,
2013-08-27 20:22:00,82.2,35.9,29.72,SSW,213,0.0,3.1,19,0.00,,SCT180,0.00,VWS V14.01,2013-08-28 03:22:00,
2013-08-27 20:27:00,82.0,35.8,29.72,SE,130,4.5,5.8,19,0.00,,SCT180,0.00,VWS V14.01,2013-08-28 03:27:00,
2013-08-27 20:32:00,81.5,35.3,29.72,SE,127,6.3,7.8,19,0.00,,SCT180,0.00,VWS V14.01,2013-08-28 03:32:00,
2013-08-27 20:38:00,81.1,36.3,29.72,SE,134,0.0,2.7,20,0.00,,SCT180,0.00,VWS V14.01,2013-08-28 03:38:00,
2013-08-27 20:43:00,80.8,36.0,29.72,ESE,113,3.6,4.9,20,0.00,,SCT180,0.00,VWS V14.01,2013-08-28 03:43:00,
2013-08-27 20:49:00,80.2,35.6,29.75,East,96,3.6,5.4,20,0.00,,SCT180,0.00,VWS V14.01,2013-08-28 03:49:00,
2013-08-27 20:54:00,79.5,35.0,29.75,SE,124,5.8,9.6,20,0.00,,SCT180,0.00,VWS V14.01,2013-08-28 03:54:00,
2013-08-27 20:59:00,78.6,34.2,29.75,ESE,107,6.7,8.3,20,0.00,,SCT180,0.00,VWS V14.01,2013-08-28 03:59:00,
2013-08-27 21:01:00,78.4,35.3,29.75,ENE,74,6.7,9.6,21,0.00,,SCT180,0.00,VWS V14.01,2013-08-28 04:01:00,
2013-08-27 21:02:00,78.4,35.3,29.75,East,83,7.4,8.7,21,0.00,,SCT180,0.00,VWS V14.01,2013-08-28 04:02:00,
2013-08-27 21:03:00,78.3,35.2,29.75,East,90,4.9,7.8,21,0.00,,SCT180,0.00,VWS V14.01,2013-08-28 04:03:00,
2013-08-27 21:04:00,78.3,35.2,29.75,ESE,107,5.4,7.4,21,0.00,,SCT180,0.00,VWS V14.01,2013-08-28 04:04:00,
2013-08-27 21:09:00,77.9,34.9,29.75,ESE,103,6.9,6.9,21,0.00,,SCT180,0.00,VWS V14.01,2013-08-28 04:09:00,
2013-08-27 21:14:00,77.7,34.7,29.75,ESE,122,6.9,10.1,21,0.00,,SCT180,0.00,VWS V14.01,2013-08-28 04:14:00,
2013-08-27 21:19:00,77.4,34.4,29.75,SSE,149,7.8,9.2,21,0.00,,SCT180,0.00,VWS V14.01,2013-08-28 04:19:00,
2013-08-27 21:24:00,77.4,34.4,29.75,SE,132,4.9,7.4,21,0.00,,SCT180,0.00,VWS V14.01,2013-08-28 04:24:00,
2013-08-27 21:29:00,77.4,34.4,29.75,SSW,195,0.0,4.0,21,0.00,,SCT180,0.00,VWS V14.01,2013-08-28 04:29:00,
2013-08-27 21:34:00,77.4,34.4,29.75,SSE,153,3.6,4.5,21,0.00,,SCT180,0.00,VWS V14.01,2013-08-28 04:34:00,
2013-08-27 21:39:00,77.2,34.3,29.75,SE,132,2.7,3.6,21,0.00,,SCT180,0.00,VWS V14.01,2013-08-28 04:39:00,
2013-08-27 21:44:00,77.0,35.3,29.75,SSE,148,3.1,3.6,22,0.00,,SCT180,0.00,VWS V14.01,2013-08-28 04:44:00,
2013-08-27 21:50:00,76.8,35.1,29.75,SE,145,3.6,5.4,22,0.00,,SCT180,0.00,VWS V14.01,2013-08-28 04:50:00,
2013-08-27 21:55:00,76.5,36.0,29.75,SE,129,3.1,6.7,23,0.00,,SCT180,0.00,VWS V14.01,2013-08-28 04:55:00,
2013-08-27 22:00:00,76.3,35.8,29.75,ESE,123,4.0,5.4,23,0.00,,SCT110,0.00,VWS V14.01,2013-08-28 05:00:00,
2013-08-27 22:05:00,76.1,36.7,29.75,SE,137,3.1,4.9,24,0.00,,SCT110,0.00,VWS V14.01,2013-08-28 05:05:00,
2013-08-27 22:11:00,75.9,37.6,29.75,SE,127,2.7,6.9,25,0.00,,SCT110,0.00,VWS V14.01,2013-08-28 05:11:00,
2013-08-27 22:16:00,75.9,36.6,29.75,ESE,116,0.0,6.3,24,0.00,,SCT110,0.00,VWS V14.01,2013-08-28 05:16:00,
2013-08-27 22:21:00,75.6,36.3,29.75,ESE,108,3.6,7.4,24,0.00,,SCT110,0.00,VWS V14.01,2013-08-28 05:21:00,
2013-08-27 22:26:00,75.4,36.1,29.75,East,100,3.6,4.5,24,0.00,,SCT110,0.00,VWS V14.01,2013-08-28 05:26:00,
2013-08-27 22:31:00,75.4,36.1,29.75,East,100,0.0,0.0,24,0.00,,SCT110,0.00,VWS V14.01,2013-08-28 05:31:00,
2013-08-27 22:36:00,75.0,35.8,29.75,East,100,0.0,0.0,24,0.00,,SCT110,0.00,VWS V14.01,2013-08-28 05:36:00,
2013-08-27 22:41:00,74.5,36.4,29.75,East,101,0.0,0.0,25,0.00,,SCT110,0.00,VWS V14.01,2013-08-28 05:41:00,
2013-08-27 22:46:00,74.1,36.1,29.75,East,100,0.0,0.0,25,0.00,,SCT110,0.00,VWS V14.01,2013-08-28 05:46:00,
2013-08-27 22:51:00,73.6,36.6,29.75,East,101,0.0,0.0,26,0.00,,SCT110,0.00,VWS V14.01,2013-08-28 05:51:00,
2013-08-27 22:57:00,72.7,36.8,29.75,East,100,4.9,4.9,27,0.00,,SCT110,0.00,VWS V14.01,2013-08-28 05:57:00,
2013-08-27 23:02:00,72.1,36.3,29.75,East,101,0.0,4.0,27,0.00,,FEW120,0.00,VWS V14.01,2013-08-28 06:02:00,
2013-08-27 23:07:00,72.0,37.1,29.75,East,101,0.0,0.0,28,0.00,,FEW120,0.00,VWS V14.01,2013-08-28 06:07:00,
2013-08-27 23:12:00,71.4,36.7,29.75,East,101,0.0,0.0,28,0.00,,FEW120,0.00,VWS V14.01,2013-08-28 06:12:00,
2013-08-27 23:17:00,71.2,37.4,29.75,East,100,0.0,0.0,29,0.00,,FEW120,0.00,VWS V14.01,2013-08-28 06:17:00,
2013-08-27 23:22:00,70.9,38.8,29.75,East,101,0.0,0.0,31,0.00,,FEW120,0.00,VWS V14.01,2013-08-28 06:22:00,
2013-08-27 23:27:00,70.5,38.5,29.75,East,100,0.0,0.0,31,0.00,,FEW120,0.00,VWS V14.01,2013-08-28 06:27:00,
2013-08-27 23:32:00,69.6,38.5,29.75,East,101,3.1,3.1,32,0.00,,FEW120,0.00,VWS V14.01,2013-08-28 06:32:00,
2013-08-27 23:37:00,69.1,38.0,29.75,ESE,102,4.0,4.9,32,0.00,,FEW120,0.00,VWS V14.01,2013-08-28 06:37:00,
2013-08-27 23:42:00,69.3,38.2,29.75,ESE,115,2.7,4.5,32,0.00,,FEW120,0.00,VWS V14.01,2013-08-28 06:42:00,
2013-08-27 23:47:00,69.1,38.0,29.75,ESE,115,0.0,0.0,32,0.00,,FEW120,0.00,VWS V14.01,2013-08-28 06:47:00,
2013-08-27 23:52:00,68.9,38.6,29.75,ESE,116,0.0,0.0,33,0.00,,FEW120,0.00,VWS V14.01,2013-08-28 06:52:00,
2013-08-27 23:58:00,68.2,38.0,29.75,ESE,116,3.6,4.0,33,0.00,,FEW120,0.00,VWS V14.01,2013-08-28 06:58:00,